createdAt,value
2019-01-16T00:00:48.136Z,79.47
2019-01-16T00:03:44.494Z,79.59
2019-01-16T00:06:38.424Z,79.78
2019-01-16T00:09:31.150Z,79.88
2019-01-16T00:12:17.122Z,79.93
2019-01-16T00:15:04.442Z,79.92
2019-01-16T00:17:44.822Z,80.46
2019-01-16T00:20:31.820Z,80.75
2019-01-16T00:23:19.964Z,80.71
2019-01-16T00:26:19.953Z,80.78
2019-01-16T00:29:10.061Z,80.62
2019-01-16T00:32:12.465Z,80.86
2019-01-16T00:35:02.381Z,81.10
2019-01-16T00:37:41.409Z,81.57
2019-01-16T00:40:35.065Z,81.83
2019-01-16T00:43:25.145Z,81.47
2019-01-16T00:46:10.011Z,81.20
2019-01-16T00:48:52.210Z,81.14
2019-01-16T00:51:37.886Z,81.54
2019-01-16T00:54:28.818Z,81.63
2019-01-16T00:57:14.767Z,81.28
2019-01-16T01:00:00.730Z,82.37
2019-01-16T01:02:46.645Z,82.07
2019-01-16T01:05:29.549Z,81.88
2019-01-16T01:08:12.678Z,82.71
2019-01-16T01:11:08.916Z,82.19
2019-01-16T01:14:08.886Z,82.04
2019-01-16T01:16:55.074Z,82.55
2019-01-16T01:19:45.354Z,82.64
2019-01-16T01:22:22.574Z,82.60
2019-01-16T01:24:59.223Z,82.78
2019-01-16T01:27:52.688Z,82.77
2019-01-16T01:30:51.322Z,82.48
2019-01-16T01:33:29.566Z,82.08
2019-01-16T01:36:22.016Z,82.47
2019-01-16T01:39:03.573Z,82.91
2019-01-16T01:41:49.800Z,83.05
2019-01-16T01:44:36.679Z,83.01
2019-01-16T01:47:23.810Z,83.44
2019-01-16T01:50:16.700Z,82.70
2019-01-16T01:53:06.924Z,83.10
2019-01-16T01:55:44.718Z,83.10
2019-01-16T01:58:30.719Z,82.99
2019-01-16T02:01:12.795Z,83.22
2019-01-16T02:04:00.750Z,83.37
2019-01-16T02:06:47.372Z,83.29
2019-01-16T02:09:27.304Z,83.20
2019-01-16T02:12:17.372Z,83.02
2019-01-16T02:15:07.138Z,82.81
2019-01-16T02:17:54.627Z,82.99
2019-01-16T02:20:34.423Z,83.30
2019-01-16T02:23:24.242Z,83.21
2019-01-16T02:26:11.178Z,83.72
2019-01-16T02:28:57.480Z,83.61
2019-01-16T02:31:47.555Z,83.32
2019-01-16T02:34:33.192Z,83.32
2019-01-16T02:37:18.536Z,83.52
2019-01-16T02:40:03.995Z,83.56
2019-01-16T02:43:09.248Z,83.51
2019-01-16T02:46:11.810Z,83.71
2019-01-16T02:48:56.010Z,83.65
2019-01-16T02:51:33.903Z,83.92
2019-01-16T02:54:26.937Z,83.47
2019-01-16T02:57:01.878Z,83.17
2019-01-16T02:59:51.905Z,83.35
2019-01-16T03:02:37.924Z,83.26
2019-01-16T03:05:28.550Z,83.36
2019-01-16T03:08:16.257Z,83.50
2019-01-16T03:10:58.790Z,83.74
2019-01-16T03:13:45.161Z,83.27
2019-01-16T03:16:31.069Z,83.53
2019-01-16T03:19:16.926Z,83.11
2019-01-16T03:22:07.613Z,83.57
2019-01-16T03:24:42.769Z,83.87
2019-01-16T03:27:29.319Z,83.52
2019-01-16T03:30:05.655Z,83.96
2019-01-16T03:32:53.680Z,83.60
2019-01-16T03:35:39.285Z,83.79
2019-01-16T03:38:28.378Z,83.64
2019-01-16T03:41:11.217Z,83.45
2019-01-16T03:43:51.862Z,83.46
2019-01-16T03:46:45.023Z,83.36
2019-01-16T03:49:32.274Z,83.32
2019-01-16T03:52:09.425Z,83.05
2019-01-16T03:54:58.655Z,83.18
2019-01-16T03:57:37.897Z,82.82
2019-01-16T04:00:34.342Z,82.67
2019-01-16T04:03:27.076Z,82.56
2019-01-16T04:06:17.135Z,82.84
2019-01-16T04:08:55.279Z,82.42
2019-01-16T04:11:36.436Z,82.35
2019-01-16T04:14:33.685Z,82.22
2019-01-16T04:17:29.343Z,81.89
2019-01-16T04:20:28.647Z,81.97
2019-01-16T04:23:15.954Z,82.18
2019-01-16T04:25:53.711Z,81.82
2019-01-16T04:28:27.801Z,81.78
2019-01-16T04:31:20.938Z,81.78
2019-01-16T04:34:09.389Z,81.87
2019-01-16T04:37:03.772Z,81.41
2019-01-16T04:39:50.820Z,81.72
2019-01-16T04:42:38.921Z,81.21
2019-01-16T04:45:25.809Z,81.07
2019-01-16T04:48:25.175Z,80.59
2019-01-16T04:51:12.081Z,80.89
2019-01-16T04:54:08.541Z,80.51
2019-01-16T04:56:58.062Z,81.04
2019-01-16T04:59:39.282Z,80.08
2019-01-16T05:02:25.622Z,80.75
2019-01-16T05:05:11.111Z,79.84
2019-01-16T05:07:57.326Z,80.98
2019-01-16T05:10:47.678Z,80.38
2019-01-16T05:13:33.335Z,79.86
2019-01-16T05:16:18.914Z,79.91
2019-01-16T05:19:14.741Z,79.76
2019-01-16T05:22:01.579Z,79.14
2019-01-16T05:24:52.645Z,79.23
2019-01-16T05:27:41.660Z,79.85
2019-01-16T05:30:25.829Z,79.11
2019-01-16T05:33:01.652Z,79.82
2019-01-16T05:35:49.191Z,79.01
2019-01-16T05:38:35.215Z,78.88
2019-01-16T05:41:21.335Z,79.13
2019-01-16T05:44:12.866Z,78.24
2019-01-16T05:46:58.610Z,79.58
2019-01-16T05:49:48.631Z,79.00
2019-01-16T05:52:38.324Z,78.38
2019-01-16T05:55:29.300Z,78.46
2019-01-16T05:58:28.656Z,78.28
2019-01-16T06:01:18.531Z,77.72
2019-01-16T06:03:58.939Z,77.78
2019-01-16T06:06:38.856Z,77.88
2019-01-16T06:09:30.189Z,77.61
2019-01-16T06:12:33.329Z,76.70
2019-01-16T06:15:21.166Z,78.10
2019-01-16T06:18:07.164Z,78.01
2019-01-16T06:20:57.146Z,78.49
2019-01-16T06:23:52.546Z,76.74
2019-01-16T06:26:38.912Z,76.98
2019-01-16T06:29:24.745Z,76.51
2019-01-16T06:32:12.001Z,76.57
2019-01-16T06:35:02.587Z,77.68
2019-01-16T06:37:48.641Z,77.89
2019-01-16T06:40:44.688Z,76.32
2019-01-16T06:43:39.258Z,78.60
2019-01-16T06:46:21.025Z,79.31
2019-01-16T06:49:18.452Z,76.82
2019-01-16T06:51:54.279Z,76.34
2019-01-16T06:54:40.566Z,76.58
2019-01-16T06:57:26.485Z,76.92
2019-01-16T07:00:25.878Z,76.47
2019-01-16T07:03:11.810Z,76.85
2019-01-16T07:05:58.725Z,76.82
2019-01-16T07:08:40.425Z,75.61
2019-01-16T07:11:26.294Z,76.71
2019-01-16T07:14:25.820Z,74.93
2019-01-16T07:17:10.666Z,74.64
2019-01-16T07:19:52.242Z,75.54
2019-01-16T07:22:38.999Z,75.30
2019-01-16T07:25:25.584Z,76.27
2019-01-16T07:28:11.673Z,74.36
2019-01-16T07:30:58.690Z,74.67
2019-01-16T07:33:48.437Z,74.79
2019-01-16T07:36:44.665Z,76.71
2019-01-16T07:39:22.326Z,74.55
2019-01-16T07:41:59.255Z,75.09
2019-01-16T07:44:55.090Z,74.29
2019-01-16T07:47:43.069Z,74.73
2019-01-16T07:50:29.773Z,74.26
2019-01-16T07:53:29.140Z,73.01
2019-01-16T07:56:15.230Z,74.56
2019-01-16T07:58:56.331Z,75.56
2019-01-16T08:01:55.601Z,74.91
2019-01-16T08:04:41.531Z,73.52
2019-01-16T08:07:31.711Z,74.65
2019-01-16T08:10:22.162Z,75.15
2019-01-16T08:13:08.411Z,74.46
2019-01-16T08:15:51.257Z,73.89
2019-01-16T08:18:41.519Z,73.77
2019-01-16T08:21:35.034Z,73.69
2019-01-16T08:24:28.387Z,74.39
2019-01-16T08:27:24.773Z,76.08
2019-01-16T08:30:21.661Z,74.50
2019-01-16T08:33:24.464Z,74.93
2019-01-16T08:36:12.510Z,74.46
2019-01-16T08:38:56.755Z,74.09
2019-01-16T08:41:34.260Z,74.60
2019-01-16T08:44:21.557Z,75.62
2019-01-16T08:47:08.884Z,74.33
2019-01-16T08:49:54.706Z,73.73
2019-01-16T08:52:47.299Z,74.08
2019-01-16T08:55:29.614Z,73.22
2019-01-16T08:58:11.783Z,74.03
2019-01-16T09:00:52.836Z,74.17
2019-01-16T09:03:46.112Z,73.05
2019-01-16T09:06:42.356Z,72.25
2019-01-16T09:09:26.498Z,74.15
2019-01-16T09:12:29.234Z,75.86
2019-01-16T09:15:22.599Z,74.69
2019-01-16T09:18:04.701Z,74.70
2019-01-16T09:20:50.835Z,74.19
2019-01-16T09:23:43.926Z,72.86
2019-01-16T09:26:26.029Z,74.09
2019-01-16T09:29:04.547Z,73.33
2019-01-16T09:31:51.590Z,73.97
2019-01-16T09:34:34.283Z,72.50
2019-01-16T09:37:21.700Z,74.53
2019-01-16T09:40:00.718Z,73.20
2019-01-16T09:42:47.002Z,73.19
2019-01-16T09:45:40.194Z,71.95
2019-01-16T09:48:14.994Z,73.49
2019-01-16T09:50:49.704Z,71.34
2019-01-16T09:53:46.516Z,71.24
2019-01-16T09:56:32.709Z,72.22
2019-01-16T09:59:13.330Z,73.34
2019-01-16T10:01:57.489Z,72.03
2019-01-16T10:04:50.747Z,73.32
2019-01-16T10:07:44.272Z,73.23
2019-01-16T10:10:31.447Z,72.21
2019-01-16T10:13:21.030Z,71.58
2019-01-16T10:16:13.803Z,71.66
2019-01-16T10:18:51.293Z,73.10
2019-01-16T10:21:27.328Z,71.43
2019-01-16T10:24:12.843Z,71.40
2019-01-16T10:26:52.516Z,70.68
2019-01-16T10:29:38.704Z,70.93
2019-01-16T10:32:19.408Z,72.69
2019-01-16T10:35:18.580Z,69.96
2019-01-16T10:38:14.687Z,70.96
2019-01-16T10:40:55.921Z,70.40
2019-01-16T10:43:49.773Z,69.59
2019-01-16T10:46:38.228Z,72.70
2019-01-16T10:49:20.632Z,70.36
2019-01-16T10:52:06.483Z,69.63
2019-01-16T10:54:42.107Z,70.23
2019-01-16T10:57:29.346Z,71.68
2019-01-16T11:00:25.942Z,70.17
2019-01-16T11:03:16.147Z,69.83
2019-01-16T11:06:05.901Z,69.79
2019-01-16T11:08:55.697Z,69.80
2019-01-16T11:11:39.828Z,68.75
2019-01-16T11:14:35.978Z,69.03
2019-01-16T11:17:21.754Z,70.03
2019-01-16T11:20:09.330Z,70.41
2019-01-16T11:22:54.649Z,71.53
2019-01-16T11:25:40.719Z,69.01
2019-01-16T11:28:30.875Z,71.70
2019-01-16T11:31:36.067Z,69.31
2019-01-16T11:34:23.926Z,69.80
2019-01-16T11:37:26.013Z,69.21
2019-01-16T11:40:13.001Z,70.54
2019-01-16T11:42:53.855Z,70.88
2019-01-16T11:45:41.511Z,70.95
2019-01-16T11:48:41.223Z,71.14
2019-01-16T11:51:34.757Z,70.86
2019-01-16T11:54:39.666Z,71.79
2019-01-16T11:57:27.051Z,71.40
2019-01-16T12:00:14.062Z,71.17
2019-01-16T12:03:06.684Z,70.32
2019-01-16T12:06:00.078Z,70.05
2019-01-16T12:08:39.974Z,68.55
2019-01-16T12:11:23.447Z,71.27
2019-01-16T12:14:10.749Z,68.43
2019-01-16T12:16:56.249Z,69.38
2019-01-16T12:20:01.615Z,69.42
2019-01-16T12:22:47.954Z,71.08
2019-01-16T12:25:43.928Z,67.86
2019-01-16T12:28:29.838Z,69.88
2019-01-16T12:31:09.216Z,68.99
2019-01-16T12:34:14.182Z,68.32
2019-01-16T12:36:52.169Z,68.85
2019-01-16T12:39:49.250Z,70.62
2019-01-16T12:42:26.824Z,68.29
2019-01-16T12:45:12.444Z,68.37
2019-01-16T12:47:58.286Z,70.22
2019-01-16T12:50:34.719Z,67.18
2019-01-16T12:53:13.729Z,68.89
2019-01-16T12:56:08.917Z,66.31
2019-01-16T12:58:52.992Z,69.10
2019-01-16T13:01:30.848Z,67.12
2019-01-16T13:04:12.161Z,67.31
2019-01-16T13:06:53.806Z,64.92
2019-01-16T13:09:41.122Z,67.08
2019-01-16T13:12:26.853Z,67.26
2019-01-16T13:15:12.163Z,69.03
2019-01-16T13:18:08.239Z,68.54
2019-01-16T13:20:47.830Z,66.14
2019-01-16T13:23:38.040Z,66.88
2019-01-16T13:26:32.914Z,68.10
2019-01-16T13:29:37.597Z,67.53
2019-01-16T13:32:23.204Z,69.41
2019-01-16T13:35:23.191Z,67.96
2019-01-16T13:38:12.935Z,67.41
2019-01-16T13:41:06.576Z,68.19
2019-01-16T13:43:48.201Z,69.02
2019-01-16T13:46:53.870Z,68.40
2019-01-16T13:49:47.186Z,68.25
2019-01-16T13:52:42.826Z,70.73
2019-01-16T13:55:28.733Z,71.53
2019-01-16T13:58:16.011Z,71.18
2019-01-16T14:00:57.392Z,67.75
2019-01-16T14:03:56.482Z,66.60
2019-01-16T14:06:35.437Z,67.66
2019-01-16T14:09:34.448Z,67.76
2019-01-16T14:12:20.826Z,66.74
2019-01-16T14:15:06.838Z,67.82
2019-01-16T14:17:59.983Z,66.75
2019-01-16T14:21:01.585Z,67.52
2019-01-16T14:23:48.337Z,67.07
2019-01-16T14:26:31.946Z,67.96
2019-01-16T14:29:34.247Z,68.79
2019-01-16T14:32:20.091Z,69.29
2019-01-16T14:35:01.807Z,68.99
2019-01-16T14:37:58.139Z,69.38
2019-01-16T14:40:45.274Z,69.06
2019-01-16T14:43:44.260Z,70.54
2019-01-16T14:46:25.908Z,69.03
2019-01-16T14:49:13.354Z,71.79
2019-01-16T14:51:50.720Z,70.45
2019-01-16T14:54:37.103Z,69.31
2019-01-16T14:57:23.155Z,69.53
2019-01-16T15:00:09.157Z,70.66
2019-01-16T15:03:08.176Z,70.82
2019-01-16T15:05:49.121Z,70.31
2019-01-16T15:08:46.032Z,70.90
2019-01-16T15:11:35.834Z,71.83
2019-01-16T15:14:22.959Z,70.86
2019-01-16T15:17:08.952Z,71.48
2019-01-16T15:19:59.315Z,71.37
2019-01-16T15:22:51.373Z,72.00
2019-01-16T15:25:41.532Z,71.69
2019-01-16T15:28:34.711Z,71.43
2019-01-16T15:31:20.255Z,72.47
2019-01-16T15:34:06.150Z,71.23
2019-01-16T15:36:55.733Z,71.75
2019-01-16T15:39:44.056Z,71.70
2019-01-16T15:42:30.267Z,72.16
2019-01-16T15:45:29.894Z,71.84
2019-01-16T15:48:17.095Z,71.94
2019-01-16T15:51:04.156Z,72.76
2019-01-16T15:53:45.799Z,72.15
2019-01-16T15:56:39.840Z,71.59
2019-01-16T15:59:30.030Z,72.39
2019-01-16T16:02:19.450Z,72.34
2019-01-16T16:05:08.564Z,71.75
2019-01-16T16:08:02.106Z,72.30
2019-01-16T16:10:49.161Z,72.37
2019-01-16T16:13:42.404Z,72.09
2019-01-16T16:16:18.199Z,72.23
2019-01-16T16:18:54.959Z,72.40
2019-01-16T16:21:38.585Z,72.58
2019-01-16T16:24:32.077Z,72.40
2019-01-16T16:27:28.113Z,72.54
2019-01-16T16:30:05.976Z,72.74
2019-01-16T16:32:49.393Z,72.61
2019-01-16T16:35:30.774Z,73.02
2019-01-16T16:38:18.139Z,73.62
2019-01-16T16:41:00.248Z,73.07
2019-01-16T16:43:49.925Z,73.87
2019-01-16T16:46:49.009Z,73.36
2019-01-16T16:49:25.011Z,73.51
2019-01-16T16:52:30.371Z,73.99
2019-01-16T16:55:09.078Z,73.68
2019-01-16T16:58:05.366Z,74.32
2019-01-16T17:01:01.439Z,74.40
2019-01-16T17:03:40.208Z,74.25
2019-01-16T17:06:19.254Z,74.31
2019-01-16T17:09:24.593Z,74.29
2019-01-16T17:12:11.897Z,74.01
2019-01-16T17:14:59.287Z,74.53
2019-01-16T17:17:44.570Z,74.63
2019-01-16T17:20:37.921Z,74.60
2019-01-16T17:23:43.085Z,74.93
2019-01-16T17:26:36.733Z,74.79
2019-01-16T17:29:22.579Z,74.99
2019-01-16T17:32:22.042Z,75.00
2019-01-16T17:35:10.588Z,75.16
2019-01-16T17:37:56.792Z,75.20
2019-01-16T17:40:53.136Z,75.17
2019-01-16T17:43:47.289Z,75.57
2019-01-16T17:46:34.179Z,75.29
2019-01-16T17:49:36.407Z,75.55
2019-01-16T17:52:26.231Z,75.75
2019-01-16T17:55:13.667Z,76.13
2019-01-16T17:58:09.165Z,76.16
2019-01-16T18:00:55.070Z,76.47
2019-01-16T18:03:36.309Z,76.52
2019-01-16T18:06:16.363Z,75.95
2019-01-16T18:09:06.619Z,75.97
2019-01-16T18:11:46.810Z,75.61
2019-01-16T18:14:36.087Z,76.05
2019-01-16T18:17:26.167Z,75.81
2019-01-16T18:20:13.475Z,75.85
2019-01-16T18:23:00.810Z,76.16
2019-01-16T18:25:50.943Z,75.79
2019-01-16T18:28:36.555Z,75.66
2019-01-16T18:31:20.900Z,76.19
2019-01-16T18:34:06.567Z,75.65
2019-01-16T18:37:04.754Z,75.37
2019-01-16T18:39:48.566Z,75.42
2019-01-16T18:42:50.736Z,75.98
2019-01-16T18:45:32.917Z,76.13
2019-01-16T18:48:18.594Z,75.61
2019-01-16T18:51:08.628Z,75.60
2019-01-16T18:53:54.634Z,75.59
2019-01-16T18:56:47.559Z,75.50
2019-01-16T18:59:36.909Z,76.08
2019-01-16T19:02:23.659Z,75.68
2019-01-16T19:05:12.760Z,75.52
2019-01-16T19:08:02.507Z,75.39
2019-01-16T19:10:39.495Z,75.20
2019-01-16T19:13:29.124Z,75.21
2019-01-16T19:16:25.323Z,75.14
2019-01-16T19:19:07.967Z,74.97
2019-01-16T19:22:04.386Z,75.10
2019-01-16T19:24:46.204Z,75.24
2019-01-16T19:27:42.484Z,75.40
2019-01-16T19:30:38.017Z,75.31
2019-01-16T19:33:19.027Z,75.30
2019-01-16T19:36:05.085Z,75.64
2019-01-16T19:38:51.846Z,75.53
2019-01-16T19:41:38.314Z,75.34
2019-01-16T19:44:28.303Z,75.00
2019-01-16T19:47:11.587Z,75.21
2019-01-16T19:50:05.005Z,75.01
2019-01-16T19:52:56.723Z,75.00
2019-01-16T19:55:51.221Z,74.91
2019-01-16T19:58:56.569Z,74.84
2019-01-16T20:02:01.878Z,74.76
2019-01-16T20:05:01.146Z,74.65
2019-01-16T20:07:56.845Z,74.83
2019-01-16T20:10:53.586Z,76.13
2019-01-16T20:13:39.811Z,75.45
2019-01-16T20:16:16.048Z,75.59
2019-01-16T20:19:09.000Z,75.34
2019-01-16T20:21:51.922Z,75.36
2019-01-16T20:24:30.120Z,75.45
2019-01-16T20:27:29.693Z,75.13
2019-01-16T20:30:17.750Z,75.26
2019-01-16T20:32:59.096Z,75.11
2019-01-16T20:35:48.901Z,75.02
2019-01-16T20:38:51.406Z,74.89
2019-01-16T20:41:45.347Z,75.04
2019-01-16T20:44:32.797Z,74.92
2019-01-16T20:47:28.676Z,74.63
2019-01-16T20:50:06.468Z,75.11
2019-01-16T20:53:02.916Z,74.59
2019-01-16T20:55:48.756Z,74.32
2019-01-16T20:58:34.289Z,74.55
2019-01-16T21:01:09.990Z,74.30
2019-01-16T21:03:59.806Z,74.41
2019-01-16T21:06:44.236Z,74.22
2019-01-16T21:09:20.495Z,74.57
2019-01-16T21:12:13.447Z,73.85
2019-01-16T21:15:00.680Z,74.05
2019-01-16T21:17:50.611Z,74.79
2019-01-16T21:20:43.436Z,74.09
2019-01-16T21:23:39.568Z,73.89
2019-01-16T21:26:32.831Z,73.74
2019-01-16T21:29:19.682Z,74.05
2019-01-16T21:31:57.730Z,74.10
2019-01-16T21:34:42.940Z,74.80
2019-01-16T21:37:30.621Z,75.00
2019-01-16T21:40:20.370Z,74.02
2019-01-16T21:43:16.084Z,74.68
2019-01-16T21:46:01.804Z,73.68
2019-01-16T21:48:47.896Z,73.45
2019-01-16T21:51:37.983Z,73.85
2019-01-16T21:54:25.572Z,73.71
2019-01-16T21:57:24.502Z,74.22
2019-01-16T22:00:17.226Z,74.41
2019-01-16T22:03:09.812Z,74.16
2019-01-16T22:06:03.062Z,73.70
2019-01-16T22:08:50.699Z,73.86
2019-01-16T22:11:33.002Z,73.69
2019-01-16T22:14:18.904Z,73.64
2019-01-16T22:17:04.842Z,73.58
2019-01-16T22:19:50.804Z,74.09
2019-01-16T22:22:28.058Z,73.27
2019-01-16T22:25:14.110Z,72.96
2019-01-16T22:27:56.415Z,72.71
2019-01-16T22:30:56.746Z,72.48
2019-01-16T22:33:56.150Z,73.02
2019-01-16T22:36:31.275Z,72.52
2019-01-16T22:39:18.267Z,72.43
2019-01-16T22:42:04.400Z,72.11
2019-01-16T22:44:42.050Z,72.50
2019-01-16T22:47:18.902Z,72.36
2019-01-16T22:50:07.274Z,72.94
2019-01-16T22:52:54.222Z,73.53
2019-01-16T22:55:56.778Z,73.24
2019-01-16T22:58:37.830Z,72.07
2019-01-16T23:01:26.000Z,73.40
2019-01-16T23:04:12.511Z,73.32
2019-01-16T23:06:46.166Z,72.98
2019-01-16T23:09:32.372Z,72.66
2019-01-16T23:12:31.904Z,72.20
2019-01-16T23:15:19.522Z,73.14
2019-01-16T23:18:15.494Z,73.93
2019-01-16T23:21:02.908Z,74.96
2019-01-16T23:23:49.801Z,76.78
2019-01-16T23:26:35.699Z,75.71
2019-01-16T23:29:35.360Z,74.99
2019-01-16T23:32:38.277Z,73.99
2019-01-16T23:35:30.858Z,76.59
2019-01-16T23:38:16.661Z,75.08
2019-01-16T23:41:01.179Z,76.70
2019-01-16T23:43:54.465Z,75.64
2019-01-16T23:46:43.134Z,75.47
2019-01-16T23:49:48.860Z,74.52
2019-01-16T23:52:35.862Z,74.32
2019-01-16T23:55:24.298Z,74.29
2019-01-16T23:58:11.151Z,75.16
